Fithian, IL (61844)

6:49 PM CDT on August 27, 2016 (GMT -0500)
K9ADL | | Change Station

Elev 725 ft 40.17 °N, 87.77 °W | Updated 2 seconds ago

Clear
Clear
80.9 °F
Feels Like 87 °F
N
3.5
Wind Variable Wind from SSW
Gusts 3.5 mph

Today
High -- | Low -- °F
--% Chance of Precip.
Yesterday
High -- | Low -- °F
Precip. -- in
Pressure 30.04 in
Visibility 10.0 miles
Clouds Clear
Heat Index 87 °F
Dew Point 75 °F
Humidity 82%
Rainfall 0.09 in
Snow Depth Not available.
6:14 AM 7:29 PM
Waning Crescent, 20% visible
METAR KDNV 272335Z AUTO 19003KT 10SM CLR 28/23 A3004 RMK AO2 T02770231
Pressure 30.04 in
Visibility 10.0 miles
Clouds Clear
Heat Index 87 °F
Dew Point 75 °F
Humidity 82%
Rainfall 0.09 in
Snow Depth Not available.
6:14 AM 7:29 PM
Waning Crescent, 20% visible
METAR KDNV 272335Z AUTO 19003KT 10SM CLR 28/23 A3004 RMK AO2 T02770231

10-Day Weather Forecast

Almanac

Astronomy

Aug. 27, 2016 Rise Set
Actual Time
Civil Twilight
Nautical Twilight
Astronomical Twilight
Moon
Length of Visible Light
Length of Day
Tomorrow will be .
, % of the Moon is Illuminated

Today's Extremes

State Highs State Lows

Community

WunderPhotos

Upload Photos

1,935,469 photos uploaded!

WunderBlog® & News

Nearby

Air Quality

  Air Quality AQ Index Pollutant
Not available.

Snow Depth

Station Depth Elevation

Earthquake Activity

City Distance Mag. Time & Date
Minimum magnitude displayed is 2.5.

Coastal Water Temperatures

Place Temperature

Stations

Nearby Weather Stations

Station Location Temp. Windchill Dew Point Humidity Wind Precip. Elev Updated Type
                   

Watches & Warnings

There are currently no watches in effect.